バクー の空港の天気 - METARとTAF

ヘイダル・アリエフ国際空港(バクー) ( UBBB / BAK ) - アゼルバイジャン バクー
飛行場実況気象(Metar)
観測時間01/20 21:30 +04 (01/20 17:30 UTC)
風向・風速静穏 0m/s
視程10km以上
天気現象
全天の8割程度の雲 雲底高度 300m
全天を覆う雲 雲底高度 610m
気温3℃
湿度93%
気圧1027hPa
METARUBBB 201730Z 00000KT 9999 BKN010 OVC020 03/02 Q1027 R88/290065 NOSIG
過去の天気等 Google飛行場航空写真 Wunderground天気予報

過去48時間のMETAR

飛行場予報(TAF)
発表時間: 1/20 21:09 +04 (1/20 17:09 UTC)
予報対象時間: 20日22時 +04 ~ 21日22時 +04
風向・風速北西 3m/s
視程8,000m
全天の8割程度の雲 雲底高度 240m
全天を覆う雲 雲底高度 760m
20日22時 +04 ~ 21日9時 +04 に一時的に
視程4,000m
天気現象弱い霧雨 もや
全天を覆う雲 雲底高度 150m
21日9時 +04 ~ 21日11時 +04 に徐々に
風向・風速北 3m/s
視程10km以上
全天の4割程度の雲 雲底高度 610m
全天の8割程度の雲 雲底高度 2,440m
TAF UBBB 201709Z 2018/2118 32006KT 8000 BKN008 OVC025 TX05/2111Z TN01/2102Z
TEMPO 2018/2105 4000 -DZ BR OVC005
BECMG 2105/2107 36006KT 9999 SCT020 BKN080